Time;durP1;ratioP1;P1;durP2;ratioP2;P2;SDS_P1;SDS_P2;PMS_P1;PMS_P2;Temp;Humidity;BMP_temperature;BMP_pressure;BME280_temperature;BME280_humidity;BME280_pressure;Samples;Min_cycle;Max_cycle;Signal;HPM_P1;HPM_P2
2022/10/16 00:00:38;;;;;;;3.00;1.10;;;17.20;99.90;;;;;;5030993;28;20920;-73
2022/10/16 00:03:04;;;;;;;2.30;1.30;;;17.20;99.90;;;;;;5030739;28;20165;-73
2022/10/16 00:05:30;;;;;;;2.20;1.07;;;17.20;99.90;;;;;;5032264;28;20595;-73
2022/10/16 00:07:56;;;;;;;2.33;0.90;;;17.20;99.90;;;;;;5034694;28;20616;-75
2022/10/16 00:10:22;;;;;;;2.00;1.00;;;17.20;99.90;;;;;;5033437;28;20571;-73
2022/10/16 00:12:48;;;;;;;3.77;0.80;;;17.20;99.90;;;;;;5033221;28;20173;-73
2022/10/16 00:15:15;;;;;;;2.50;0.90;;;17.20;99.90;;;;;;5049796;28;20656;-73
2022/10/16 00:17:41;;;;;;;1.30;0.70;;;17.20;99.90;;;;;;5034602;28;20588;-74
2022/10/16 00:20:07;;;;;;;2.03;0.90;;;17.10;99.90;;;;;;5034345;28;20567;-74
2022/10/16 00:22:33;;;;;;;1.47;0.77;;;17.20;99.90;;;;;;5032757;28;20165;-74
2022/10/16 00:24:59;;;;;;;1.50;0.90;;;17.10;99.90;;;;;;5034504;28;20564;-74
2022/10/16 00:27:24;;;;;;;2.10;1.20;;;17.10;99.90;;;;;;5034398;28;20185;-74
2022/10/16 00:29:51;;;;;;;1.80;0.90;;;17.10;99.90;;;;;;5034390;28;20166;-74
2022/10/16 00:32:18;;;;;;;1.73;0.80;;;17.10;99.90;;;;;;5033924;28;20181;-74
2022/10/16 00:34:45;;;;;;;1.90;0.97;;;17.10;99.90;;;;;;5034040;28;21162;-74
2022/10/16 00:37:11;;;;;;;1.40;0.80;;;17.00;99.90;;;;;;5032921;28;20699;-74
2022/10/16 00:39:37;;;;;;;1.70;1.10;;;17.00;99.90;;;;;;5032968;28;21347;-74
2022/10/16 00:42:03;;;;;;;2.57;1.10;;;17.00;99.90;;;;;;5033655;28;20575;-74
2022/10/16 00:44:45;;;;;;;1.53;0.80;;;17.00;99.90;;;;;;5032917;28;20177;-74
2022/10/16 00:47:33;;;;;;;1.80;1.00;;;17.00;99.90;;;;;;5033981;28;20273;-74
2022/10/16 00:50:16;;;;;;;1.80;0.90;;;16.90;99.90;;;;;;5033654;28;20596;-73
2022/10/16 00:52:45;;;;;;;1.70;1.00;;;16.90;99.90;;;;;;5033472;28;20638;-76
2022/10/16 00:55:11;;;;;;;1.30;0.80;;;16.80;99.90;;;;;;5032492;28;20638;-74
2022/10/16 00:57:38;;;;;;;1.67;0.90;;;16.80;99.90;;;;;;5032630;28;20679;-74
2022/10/16 01:00:07;;;;;;;1.60;1.03;;;16.80;99.90;;;;;;5033650;28;20575;-73
2022/10/16 01:02:33;;;;;;;1.57;0.80;;;16.80;99.90;;;;;;5033308;28;20553;-73
2022/10/16 01:04:59;;;;;;;1.60;0.87;;;16.80;99.90;;;;;;5032408;28;20927;-73
2022/10/16 01:07:56;;;;;;;1.70;0.90;;;16.80;99.90;;;;;;5033461;28;20627;-73
2022/10/16 01:10:35;;;;;;;3.20;0.87;;;16.70;99.90;;;;;;5033507;28;20580;-73
2022/10/16 01:13:18;;;;;;;1.70;0.97;;;16.70;99.90;;;;;;5033066;28;20568;-73
2022/10/16 01:16:18;;;;;;;1.53;0.73;;;16.70;99.90;;;;;;5032811;28;20655;-74
2022/10/16 01:19:11;;;;;;;1.80;0.80;;;16.60;99.90;;;;;;5033304;28;20561;-73
2022/10/16 01:21:42;;;;;;;1.43;0.60;;;16.70;99.90;;;;;;5032414;28;20671;-74
2022/10/16 01:24:37;;;;;;;1.60;0.70;;;16.60;99.90;;;;;;5033081;28;20583;-73
2022/10/16 01:27:15;;;;;;;1.30;0.70;;;16.60;99.90;;;;;;5033111;28;20627;-73
2022/10/16 01:30:07;;;;;;;1.20;0.70;;;16.70;99.90;;;;;;5033205;28;20556;-73
2022/10/16 01:33:11;;;;;;;1.20;0.60;;;16.60;99.90;;;;;;5032600;28;20596;-73
2022/10/16 01:35:41;;;;;;;1.37;0.63;;;16.70;99.90;;;;;;4988356;28;20706;-73
2022/10/16 01:38:17;;;;;;;3.67;0.90;;;16.60;99.90;;;;;;5031829;28;20588;-73
2022/10/16 01:40:47;;;;;;;1.60;0.60;;;16.60;99.90;;;;;;5031802;28;20650;-74
2022/10/16 01:43:16;;;;;;;1.17;0.60;;;16.60;99.90;;;;;;5032401;28;20561;-74
2022/10/16 01:45:44;;;;;;;2.33;0.70;;;16.60;99.90;;;;;;5032758;28;20607;-74
2022/10/16 01:48:13;;;;;;;1.40;0.70;;;16.60;99.90;;;;;;5032738;28;20584;-74
2022/10/16 01:50:43;;;;;;;2.17;0.70;;;16.60;99.90;;;;;;5032773;28;20568;-73
2022/10/16 01:53:12;;;;;;;1.20;0.60;;;16.60;99.90;;;;;;5031020;28;20964;-73
2022/10/16 01:55:44;;;;;;;1.70;0.80;;;16.60;99.90;;;;;;5032620;28;20616;-73
2022/10/16 01:58:12;;;;;;;1.40;0.60;;;16.60;99.90;;;;;;5036843;28;20623;-73
2022/10/16 02:00:42;;;;;;;3.83;0.80;;;16.60;99.90;;;;;;5042771;28;21178;-73
2022/10/16 02:03:10;;;;;;;1.50;0.70;;;16.50;99.90;;;;;;5046448;28;20622;-73
2022/10/16 02:05:45;;;;;;;1.50;0.70;;;16.60;99.90;;;;;;5044368;28;20568;-73
2022/10/16 02:08:11;;;;;;;1.27;0.60;;;16.60;99.90;;;;;;5045686;28;20688;-73
2022/10/16 02:10:37;;;;;;;2.63;0.90;;;16.60;99.90;;;;;;5041349;28;20683;-73
2022/10/16 02:13:08;;;;;;;1.10;0.50;;;16.60;99.90;;;;;;5043940;28;20604;-74
2022/10/16 02:15:35;;;;;;;1.50;0.60;;;16.60;99.90;;;;;;5053156;28;20630;-73
2022/10/16 02:18:03;;;;;;;1.33;0.80;;;16.70;99.90;;;;;;5051975;28;20583;-73
2022/10/16 02:20:34;;;;;;;1.40;0.70;;;16.70;99.90;;;;;;5052031;28;20595;-73
2022/10/16 02:23:02;;;;;;;1.30;0.80;;;16.70;99.90;;;;;;5051411;28;20596;-73
2022/10/16 02:25:35;;;;;;;1.50;0.60;;;16.70;99.90;;;;;;5052209;28;21003;-73
2022/10/16 02:28:16;;;;;;;1.30;0.70;;;16.80;99.90;;;;;;5050883;28;20611;-73
2022/10/16 02:30:50;;;;;;;2.23;0.80;;;16.80;99.90;;;;;;5036593;28;21159;-73
2022/10/16 02:33:19;;;;;;;1.30;0.70;;;16.80;99.90;;;;;;5030520;28;20669;-73
2022/10/16 02:35:47;;;;;;;2.30;0.60;;;16.80;99.90;;;;;;5031769;28;21155;-73
2022/10/16 02:38:15;;;;;;;2.37;0.70;;;16.80;99.90;;;;;;5031929;28;20599;-73
2022/10/16 02:40:42;;;;;;;1.60;0.80;;;16.90;99.90;;;;;;5031884;28;20573;-73
2022/10/16 02:43:09;;;;;;;1.40;0.70;;;16.90;99.90;;;;;;5031551;28;20580;-73
2022/10/16 02:45:35;;;;;;;3.53;0.80;;;16.90;99.90;;;;;;5031767;28;20577;-73
2022/10/16 02:48:01;;;;;;;1.30;0.60;;;16.90;99.90;;;;;;5031723;28;20603;-73
2022/10/16 02:50:26;;;;;;;1.50;0.80;;;17.00;99.90;;;;;;5031831;28;20173;-73
2022/10/16 02:52:52;;;;;;;1.40;0.70;;;17.00;99.90;;;;;;5030298;28;20592;-73
2022/10/16 02:55:18;;;;;;;1.87;0.80;;;17.00;99.90;;;;;;5031707;28;20190;-73
2022/10/16 02:57:44;;;;;;;1.30;0.70;;;17.00;99.90;;;;;;5030446;28;20189;-73
2022/10/16 03:00:13;;;;;;;1.30;0.60;;;17.00;99.90;;;;;;5031758;28;20568;-73
2022/10/16 03:02:39;;;;;;;1.40;0.67;;;17.00;99.90;;;;;;5031243;28;20161;-73
2022/10/16 03:05:05;;;;;;;1.50;0.80;;;17.10;99.90;;;;;;5031740;28;20568;-73
2022/10/16 03:07:31;;;;;;;1.60;0.60;;;17.00;99.90;;;;;;5030133;28;20968;-74
2022/10/16 03:09:59;;;;;;;2.13;0.60;;;17.00;99.90;;;;;;5030222;28;20572;-74
2022/10/16 03:12:26;;;;;;;2.30;0.60;;;17.00;99.90;;;;;;5031082;28;20173;-73
2022/10/16 03:14:52;;;;;;;1.50;0.80;;;17.00;99.90;;;;;;5030127;28;20608;-73
2022/10/16 03:17:18;;;;;;;1.90;0.70;;;17.00;99.90;;;;;;5031257;28;20699;-74
2022/10/16 03:19:44;;;;;;;1.50;0.70;;;16.90;99.90;;;;;;5031525;28;20599;-74
2022/10/16 03:22:10;;;;;;;1.20;0.60;;;16.90;99.90;;;;;;5031038;28;20260;-73
2022/10/16 03:24:35;;;;;;;1.40;0.60;;;16.90;99.90;;;;;;5031296;28;20185;-74
2022/10/16 03:27:01;;;;;;;1.30;0.70;;;16.90;99.90;;;;;;5030033;28;20616;-74
2022/10/16 03:29:29;;;;;;;1.30;0.70;;;16.80;99.90;;;;;;5030214;28;20188;-74
2022/10/16 03:31:55;;;;;;;2.03;0.70;;;16.80;99.90;;;;;;5031243;28;20568;-73
2022/10/16 03:34:21;;;;;;;1.53;0.70;;;16.80;99.90;;;;;;5031063;28;20601;-74
2022/10/16 03:36:47;;;;;;;1.60;0.70;;;16.80;99.90;;;;;;5031261;28;20615;-74
2022/10/16 03:39:12;;;;;;;1.20;0.60;;;16.80;99.90;;;;;;5031965;28;20663;-74
2022/10/16 03:41:38;;;;;;;3.10;0.57;;;16.80;99.90;;;;;;5033919;28;20579;-73
2022/10/16 03:44:04;;;;;;;1.23;0.60;;;16.80;99.90;;;;;;5034882;28;20165;-73
2022/10/16 03:46:30;;;;;;;1.40;0.70;;;16.70;99.90;;;;;;5035089;28;20190;-73
2022/10/16 03:48:55;;;;;;;1.60;0.70;;;16.80;99.90;;;;;;5033709;28;20601;-73
2022/10/16 03:51:21;;;;;;;2.43;0.60;;;16.80;99.90;;;;;;5033728;28;20170;-73
2022/10/16 03:53:47;;;;;;;1.43;0.60;;;16.80;99.90;;;;;;5034691;28;20186;-73
2022/10/16 03:56:13;;;;;;;1.67;0.70;;;16.80;99.90;;;;;;5034910;28;20200;-73
2022/10/16 03:58:39;;;;;;;1.37;0.70;;;16.80;99.90;;;;;;5034886;28;20174;-73
2022/10/16 04:01:05;;;;;;;1.30;0.60;;;16.80;99.90;;;;;;5034914;28;21128;-73
2022/10/16 04:03:30;;;;;;;1.70;0.57;;;16.80;99.90;;;;;;5034567;28;20173;-73
2022/10/16 04:05:56;;;;;;;1.20;0.60;;;16.80;99.90;;;;;;5033681;28;20268;-73
2022/10/16 04:08:22;;;;;;;1.30;0.60;;;16.90;99.90;;;;;;5033696;28;20205;-72
2022/10/16 04:10:48;;;;;;;1.77;0.70;;;16.90;99.90;;;;;;5033310;28;20170;-72
2022/10/16 04:13:14;;;;;;;1.30;0.60;;;16.90;99.90;;;;;;5032785;28;20575;-73
2022/10/16 04:15:40;;;;;;;1.30;0.60;;;16.90;99.90;;;;;;5034534;28;20193;-73
2022/10/16 04:18:06;;;;;;;1.17;0.50;;;16.90;99.90;;;;;;5034596;28;21041;-73
2022/10/16 04:20:32;;;;;;;1.40;0.80;;;16.90;99.90;;;;;;5034465;28;20162;-73
2022/10/16 04:22:58;;;;;;;1.27;0.60;;;16.90;99.90;;;;;;5032827;28;20580;-73
2022/10/16 04:25:24;;;;;;;1.43;0.50;;;16.90;99.90;;;;;;5033012;28;20642;-72
2022/10/16 04:27:49;;;;;;;2.40;0.60;;;16.90;99.90;;;;;;5033120;28;20196;-72
2022/10/16 04:30:15;;;;;;;2.23;0.60;;;16.90;99.90;;;;;;5034363;28;20244;-72
2022/10/16 04:32:41;;;;;;;2.17;0.60;;;16.90;99.90;;;;;;5032847;28;20556;-72
2022/10/16 04:35:08;;;;;;;1.70;0.60;;;16.90;99.90;;;;;;5034119;28;20689;-72
2022/10/16 04:37:33;;;;;;;1.40;0.60;;;16.90;99.90;;;;;;5034150;28;20577;-72
2022/10/16 04:39:59;;;;;;;1.33;0.60;;;16.90;99.90;;;;;;5034176;28;20587;-73
2022/10/16 04:42:25;;;;;;;3.03;0.60;;;16.90;99.90;;;;;;5049125;28;20177;-72
2022/10/16 04:44:50;;;;;;;1.50;0.60;;;16.90;99.90;;;;;;5034006;28;20508;-73
2022/10/16 04:47:16;;;;;;;1.30;0.60;;;16.90;99.90;;;;;;5033790;28;20224;-73
2022/10/16 04:49:42;;;;;;;1.20;0.60;;;16.90;99.90;;;;;;5033944;28;20630;-73
2022/10/16 04:52:09;;;;;;;1.17;0.50;;;16.80;99.90;;;;;;5031285;28;20166;-73
2022/10/16 04:54:35;;;;;;;1.60;0.60;;;16.80;99.90;;;;;;5033643;28;20677;-73
2022/10/16 04:57:00;;;;;;;1.33;0.60;;;16.80;99.90;;;;;;5033527;28;20630;-74
2022/10/16 04:59:26;;;;;;;1.70;0.70;;;16.80;99.90;;;;;;5032438;28;20641;-73
2022/10/16 05:01:52;;;;;;;1.20;0.60;;;16.80;99.90;;;;;;5033565;28;20173;-73
2022/10/16 05:04:18;;;;;;;1.70;0.60;;;16.80;99.90;;;;;;5033377;28;20170;-72
2022/10/16 05:06:43;;;;;;;3.60;0.60;;;16.80;99.90;;;;;;5032087;28;20205;-73
2022/10/16 05:09:09;;;;;;;2.00;0.60;;;16.80;99.90;;;;;;5033722;28;20174;-73
2022/10/16 05:11:35;;;;;;;1.20;0.60;;;16.90;99.90;;;;;;5033332;28;20166;-74
2022/10/16 05:14:01;;;;;;;1.20;0.60;;;16.90;99.90;;;;;;5031712;28;20956;-73
2022/10/16 05:16:27;;;;;;;1.90;0.60;;;16.80;99.90;;;;;;5015571;28;20235;-74
2022/10/16 05:18:53;;;;;;;1.87;0.60;;;16.80;99.90;;;;;;5033406;28;20556;-74
2022/10/16 05:21:19;;;;;;;1.20;0.60;;;16.80;99.90;;;;;;5033223;28;20655;-74
2022/10/16 05:23:45;;;;;;;1.87;0.60;;;16.90;99.90;;;;;;5032979;28;20663;-74
2022/10/16 05:26:11;;;;;;;1.50;0.60;;;16.90;99.90;;;;;;5031923;28;21017;-74
2022/10/16 05:28:37;;;;;;;1.43;0.50;;;16.90;99.90;;;;;;5031861;28;20174;-74
2022/10/16 05:31:06;;;;;;;2.70;0.60;;;16.90;99.90;;;;;;5033110;28;20538;-73
2022/10/16 05:33:32;;;;;;;1.70;0.60;;;16.90;99.90;;;;;;5032866;28;20269;-73
2022/10/16 05:36:02;;;;;;;1.93;0.53;;;16.90;99.90;;;;;;5033028;28;21094;-73
2022/10/16 05:38:28;;;;;;;2.53;0.87;;;16.90;99.90;;;;;;5033047;28;20186;-72
2022/10/16 05:40:54;;;;;;;1.20;0.50;;;16.80;99.90;;;;;;5032941;28;20561;-72
2022/10/16 05:43:20;;;;;;;1.50;0.70;;;16.90;99.90;;;;;;5031311;28;20626;-72
2022/10/16 05:46:01;;;;;;;2.17;0.70;;;16.80;99.90;;;;;;5032923;28;20509;-72
2022/10/16 05:48:27;;;;;;;2.23;0.63;;;16.80;99.90;;;;;;5032868;28;20193;-74
2022/10/16 05:51:00;;;;;;;2.30;0.50;;;16.80;99.90;;;;;;5032742;28;20586;-74
2022/10/16 05:53:31;;;;;;;1.97;0.60;;;16.80;99.90;;;;;;5032522;28;20900;-73
2022/10/16 05:55:58;;;;;;;2.00;0.70;;;16.70;99.90;;;;;;5032443;28;20620;-73
2022/10/16 05:58:25;;;;;;;1.20;0.50;;;16.70;99.90;;;;;;5040214;28;20691;-74
2022/10/16 06:01:02;;;;;;;1.90;0.70;;;16.70;99.90;;;;;;5040413;28;21027;-74
2022/10/16 06:03:28;;;;;;;1.33;0.70;;;16.60;99.90;;;;;;5030433;28;21224;-74
2022/10/16 06:05:54;;;;;;;1.70;0.70;;;16.60;99.90;;;;;;5031180;28;20564;-74
2022/10/16 06:08:22;;;;;;;1.30;0.63;;;16.60;99.90;;;;;;5040111;28;20209;-73
2022/10/16 06:10:48;;;;;;;1.33;0.70;;;16.60;99.90;;;;;;5047400;28;20183;-73
2022/10/16 06:13:15;;;;;;;3.20;0.70;;;16.60;99.90;;;;;;5051883;28;20571;-74
2022/10/16 06:15:42;;;;;;;1.30;0.70;;;16.50;99.90;;;;;;5052210;28;20868;-75
2022/10/16 06:18:09;;;;;;;2.27;0.60;;;16.50;99.90;;;;;;5052176;28;20951;-74
2022/10/16 06:20:35;;;;;;;1.40;0.70;;;16.60;99.90;;;;;;5031802;28;20592;-74
2022/10/16 06:23:01;;;;;;;3.60;0.70;;;16.60;99.90;;;;;;5028868;28;20711;-73
2022/10/16 06:25:27;;;;;;;2.90;0.80;;;16.60;99.90;;;;;;5030732;28;20675;-73
2022/10/16 06:27:53;;;;;;;1.30;0.70;;;16.50;99.90;;;;;;5030599;28;20630;-73
2022/10/16 06:30:18;;;;;;;3.60;0.80;;;16.60;99.90;;;;;;5018941;28;20205;-75
2022/10/16 06:32:44;;;;;;;2.13;0.70;;;16.60;99.90;;;;;;5012061;28;20167;-73
2022/10/16 06:35:10;;;;;;;1.80;0.80;;;16.60;99.90;;;;;;4994854;28;20217;-74
2022/10/16 06:37:36;;;;;;;1.30;0.70;;;16.60;99.90;;;;;;5012057;28;20205;-74
2022/10/16 06:40:04;;;;;;;2.60;0.70;;;16.70;99.90;;;;;;5012320;28;20228;-74
2022/10/16 06:42:30;;;;;;;3.43;0.87;;;16.80;99.90;;;;;;5011287;28;20210;-74
2022/10/16 06:44:56;;;;;;;1.60;0.60;;;16.80;99.90;;;;;;5012144;28;20614;-75
2022/10/16 06:47:22;;;;;;;1.50;0.70;;;16.90;99.90;;;;;;5017216;28;20612;-73
2022/10/16 06:49:47;;;;;;;1.47;0.63;;;16.90;99.90;;;;;;5019946;28;20581;-74
2022/10/16 06:52:13;;;;;;;1.93;0.70;;;17.00;99.90;;;;;;5020143;28;20185;-74
2022/10/16 06:54:39;;;;;;;1.60;0.70;;;17.10;99.90;;;;;;5031579;28;20201;-74
2022/10/16 06:57:04;;;;;;;1.40;0.70;;;17.20;99.90;;;;;;5020317;28;20224;-73
2022/10/16 06:59:30;;;;;;;1.33;0.70;;;17.30;99.90;;;;;;5010738;28;20175;-73
2022/10/16 07:01:56;;;;;;;1.40;0.60;;;17.40;99.90;;;;;;5022212;28;20174;-74
2022/10/16 07:04:22;;;;;;;1.70;0.70;;;17.50;99.90;;;;;;5031432;28;20231;-74
2022/10/16 07:06:48;;;;;;;1.70;0.87;;;17.60;99.90;;;;;;5019891;28;20683;-74
2022/10/16 07:09:13;;;;;;;1.67;0.77;;;17.60;99.90;;;;;;5013802;28;20228;-73
2022/10/16 07:11:40;;;;;;;2.53;0.70;;;17.70;99.90;;;;;;5031207;28;20502;-74
2022/10/16 07:14:17;;;;;;;2.13;0.70;;;17.80;99.90;;;;;;5030543;28;20170;-75
2022/10/16 07:16:43;;;;;;;1.20;0.60;;;17.90;99.90;;;;;;5034079;28;20650;-73
2022/10/16 07:19:11;;;;;;;1.83;0.60;;;18.00;99.90;;;;;;5046428;28;20611;-73
2022/10/16 07:21:37;;;;;;;1.20;0.60;;;18.10;99.90;;;;;;5049000;28;20625;-73
2022/10/16 07:24:11;;;;;;;1.20;0.60;;;18.20;99.90;;;;;;5055250;28;20598;-73
2022/10/16 07:26:38;;;;;;;1.50;0.70;;;18.30;99.90;;;;;;5055468;28;20595;-73
2022/10/16 07:29:17;;;;;;;2.00;0.67;;;18.30;99.90;;;;;;5055436;28;20559;-74
2022/10/16 07:31:43;;;;;;;1.37;0.57;;;18.40;99.90;;;;;;5037384;28;20576;-74
2022/10/16 07:34:11;;;;;;;2.23;0.80;;;18.50;99.90;;;;;;5055084;28;20559;-74
2022/10/16 07:36:36;;;;;;;1.30;0.70;;;18.60;99.90;;;;;;5055146;28;20641;-75
2022/10/16 07:39:03;;;;;;;1.30;0.60;;;18.80;99.90;;;;;;5055055;28;20560;-75
2022/10/16 07:41:29;;;;;;;1.40;0.60;;;18.90;99.90;;;;;;5054984;28;20165;-74
2022/10/16 07:43:59;;;;;;;1.60;0.60;;;19.00;99.90;;;;;;5054820;28;20578;-75
2022/10/16 07:46:26;;;;;;;1.57;0.60;;;19.10;99.90;;;;;;5055121;28;20574;-75
2022/10/16 07:48:53;;;;;;;1.30;0.60;;;19.20;99.90;;;;;;5054990;28;20560;-74
2022/10/16 07:51:20;;;;;;;1.60;0.57;;;19.20;99.90;;;;;;5053707;28;20563;-74
2022/10/16 07:53:47;;;;;;;2.20;1.10;;;19.30;99.90;;;;;;5053560;28;20579;-74
2022/10/16 07:56:13;;;;;;;2.07;0.90;;;19.40;99.90;;;;;;5053580;28;20615;-74
2022/10/16 07:58:40;;;;;;;1.50;0.60;;;19.50;99.90;;;;;;5034663;28;20626;-73
2022/10/16 08:01:08;;;;;;;1.40;0.60;;;19.50;99.90;;;;;;5031217;28;20580;-73
2022/10/16 08:03:34;;;;;;;1.70;0.63;;;19.50;99.90;;;;;;5034469;28;20579;-73
2022/10/16 08:06:02;;;;;;;1.43;0.70;;;19.50;99.90;;;;;;5034738;28;20572;-73
2022/10/16 08:08:28;;;;;;;1.53;0.60;;;19.60;99.90;;;;;;5033191;28;20794;-73
2022/10/16 08:10:54;;;;;;;1.30;0.60;;;19.80;99.90;;;;;;5034650;28;20568;-73
2022/10/16 08:13:20;;;;;;;1.40;0.63;;;20.20;99.90;;;;;;5034346;28;20671;-73
2022/10/16 08:15:46;;;;;;;2.33;0.50;;;21.00;99.90;;;;;;5033272;28;20263;-74
2022/10/16 08:18:13;;;;;;;1.70;0.70;;;21.80;99.90;;;;;;5034726;28;20646;-73
2022/10/16 08:20:40;;;;;;;2.97;0.60;;;22.70;99.90;;;;;;5033367;28;21127;-74
2022/10/16 08:23:06;;;;;;;1.40;0.67;;;23.80;99.90;;;;;;5034106;28;20559;-73
2022/10/16 08:25:36;;;;;;;1.57;0.70;;;24.90;99.90;;;;;;5034600;28;20599;-74
2022/10/16 08:28:05;;;;;;;2.00;0.60;;;26.10;99.90;;;;;;5034514;28;21190;-74
2022/10/16 08:30:31;;;;;;;3.17;0.50;;;27.40;99.90;;;;;;5035031;28;20590;-74
2022/10/16 08:32:58;;;;;;;1.20;0.40;;;28.50;99.90;;;;;;5015760;28;20677;-74
2022/10/16 08:35:24;;;;;;;1.70;0.47;;;29.60;99.90;;;;;;5041635;28;20203;-75
2022/10/16 08:37:50;;;;;;;1.40;0.50;;;30.60;99.90;;;;;;5032921;28;20683;-73
2022/10/16 08:40:23;;;;;;;1.37;0.57;;;31.40;99.90;;;;;;5033567;28;20596;-74
2022/10/16 08:42:55;;;;;;;1.47;0.60;;;32.10;99.90;;;;;;5031863;28;20173;-74
2022/10/16 08:45:38;;;;;;;1.20;0.50;;;32.90;99.90;;;;;;5034052;28;20966;-74
2022/10/16 08:48:18;;;;;;;1.20;0.40;;;33.40;99.90;;;;;;5033932;28;20635;-73
2022/10/16 08:50:44;;;;;;;2.27;0.70;;;33.90;99.90;;;;;;5032983;28;20572;-73
2022/10/16 08:53:36;;;;;;;2.43;0.60;;;34.20;99.90;;;;;;5033787;28;20608;-74
2022/10/16 08:56:02;;;;;;;1.30;0.50;;;34.50;99.90;;;;;;5033814;28;21163;-73
2022/10/16 08:58:30;;;;;;;1.30;0.60;;;34.60;98.90;;;;;;5032609;28;20646;-74
2022/10/16 09:00:59;;;;;;;1.33;0.50;;;34.90;97.70;;;;;;5033972;28;20766;-74
2022/10/16 09:03:46;;;;;;;1.47;0.70;;;35.30;96.20;;;;;;5032341;28;20588;-79
2022/10/16 09:06:31;;;;;;;1.30;0.70;;;35.60;95.10;;;;;;5034009;28;20623;-79
2022/10/16 09:09:07;;;;;;;1.20;0.50;;;36.00;94.10;;;;;;5033521;28;21139;-81
2022/10/16 09:12:09;;;;;;;1.50;0.57;;;36.20;91.90;;;;;;5012769;28;20573;-79
2022/10/16 09:15:01;;;;;;;1.40;0.50;;;36.60;92.00;;;;;;5013667;28;20726;-78
2022/10/16 09:17:47;;;;;;;3.10;0.70;;;37.00;90.00;;;;;;5030132;28;20620;-79
2022/10/16 09:20:40;;;;;;;1.87;1.37;;;37.20;86.00;;;;;;5031196;28;20956;-79
2022/10/16 09:23:18;;;;;;;1.80;0.93;;;37.50;86.90;;;;;;5031325;28;20588;-79
2022/10/16 09:25:48;;;;;;;1.97;0.93;;;37.80;81.40;;;;;;5031764;28;20579;-78
2022/10/16 09:28:14;;;;;;;2.93;1.53;;;38.00;79.40;;;;;;5031657;28;20611;-78
2022/10/16 09:30:40;;;;;;;1.90;0.87;;;38.10;76.70;;;;;;5031716;28;20592;-78
2022/10/16 09:33:07;;;;;;;1.73;0.70;;;38.10;72.40;;;;;;5025388;28;20573;-78
2022/10/16 09:35:45;;;;;;;1.83;0.70;;;38.00;70.70;;;;;;5017554;28;20692;-79
2022/10/16 09:38:30;;;;;;;1.70;1.10;;;38.10;68.60;;;;;;5029820;28;20607;-79
2022/10/16 09:40:59;;;;;;;4.30;1.90;;;38.10;67.70;;;;;;5031717;28;20560;-78
2022/10/16 09:43:38;;;;;;;1.80;1.10;;;37.60;64.40;;;;;;5033320;28;20573;-79
2022/10/16 09:46:26;;;;;;;1.73;0.97;;;37.00;62.50;;;;;;5032983;28;20664;-78
2022/10/16 09:49:17;;;;;;;1.43;0.60;;;36.60;62.30;;;;;;5032677;28;20596;-79
2022/10/16 09:51:42;;;;;;;1.50;0.63;;;36.40;62.80;;;;;;5029637;28;20630;-78
2022/10/16 09:54:08;;;;;;;2.00;1.20;;;36.30;63.60;;;;;;5015033;28;20599;-78
2022/10/16 09:56:36;;;;;;;1.60;0.90;;;36.40;63.50;;;;;;5036111;28;20232;-78
2022/10/16 09:59:13;;;;;;;2.80;1.07;;;36.50;62.60;;;;;;5034231;28;20707;-78
2022/10/16 10:01:42;;;;;;;2.70;0.80;;;36.40;61.40;;;;;;5032667;28;20663;-78
2022/10/16 10:04:09;;;;;;;1.30;0.60;;;36.30;60.80;;;;;;5032571;28;20557;-79
2022/10/16 10:06:41;;;;;;;1.70;0.60;;;36.30;60.90;;;;;;5032151;28;20707;-79
2022/10/16 10:09:46;;;;;;;1.40;0.60;;;36.20;60.00;;;;;;5032667;28;20567;-79
2022/10/16 10:12:23;;;;;;;3.73;0.50;;;36.10;60.30;;;;;;5030606;28;20598;-79
2022/10/16 10:14:52;;;;;;;1.40;0.50;;;35.90;58.80;;;;;;5032233;28;20615;-78
2022/10/16 10:17:26;;;;;;;1.47;0.40;;;35.70;58.80;;;;;;5031330;28;20961;-79
2022/10/16 10:19:54;;;;;;;1.40;0.50;;;35.40;58.20;;;;;;5033056;28;20567;-78
2022/10/16 10:22:38;;;;;;;1.40;0.43;;;35.10;58.80;;;;;;5032223;28;20603;-73
2022/10/16 10:25:13;;;;;;;1.20;0.40;;;35.00;58.80;;;;;;5032196;28;20580;-73
2022/10/16 10:28:05;;;;;;;1.20;0.40;;;34.90;58.90;;;;;;5030690;28;21240;-73
2022/10/16 10:30:53;;;;;;;1.30;0.40;;;34.90;58.80;;;;;;5012826;28;20953;-73
2022/10/16 10:33:34;;;;;;;1.50;0.43;;;34.80;58.20;;;;;;5030724;28;20588;-72
2022/10/16 10:36:34;;;;;;;1.20;0.40;;;34.60;57.00;;;;;;5032151;28;20698;-72
2022/10/16 10:39:05;;;;;;;12.03;0.70;;;34.20;56.80;;;;;;5031880;28;20564;-72
2022/10/16 10:41:51;;;;;;;1.60;0.60;;;33.70;56.50;;;;;;5031971;28;20966;-72
2022/10/16 10:44:31;;;;;;;1.73;0.50;;;33.10;56.10;;;;;;5027378;28;20590;-73
2022/10/16 10:47:01;;;;;;;1.93;0.40;;;32.50;56.40;;;;;;5031799;28;20603;-73
2022/10/16 10:50:00;;;;;;;2.07;0.70;;;32.00;56.60;;;;;;5031016;28;20577;-73
2022/10/16 10:52:31;;;;;;;1.27;0.40;;;31.60;57.30;;;;;;5022241;28;20625;-74
2022/10/16 10:55:11;;;;;;;1.40;0.40;;;31.30;57.90;;;;;;5031646;28;21114;-74
2022/10/16 10:58:04;;;;;;;1.20;0.40;;;31.10;58.30;;;;;;5031427;28;20613;-74
2022/10/16 11:00:50;;;;;;;1.77;0.50;;;31.00;58.40;;;;;;5032158;28;21133;-73
2022/10/16 11:03:42;;;;;;;1.93;0.50;;;30.80;58.80;;;;;;5031910;28;20575;-75
2022/10/16 11:06:28;;;;;;;1.30;0.40;;;30.60;58.80;;;;;;5030485;28;20560;-74
2022/10/16 11:09:00;;;;;;;1.30;0.60;;;30.60;58.80;;;;;;5030388;28;20704;-75
2022/10/16 11:11:40;;;;;;;1.17;0.40;;;30.50;59.00;;;;;;5033640;28;20576;-75
2022/10/16 11:14:22;;;;;;;1.60;0.40;;;30.50;59.10;;;;;;5032205;28;20661;-75
2022/10/16 11:16:54;;;;;;;2.27;0.70;;;30.50;59.30;;;;;;5031670;28;20640;-75
2022/10/16 11:19:34;;;;;;;3.20;0.80;;;30.50;58.90;;;;;;5052392;28;20582;-75
2022/10/16 11:22:09;;;;;;;1.50;0.70;;;30.50;58.90;;;;;;5046936;28;21018;-75
2022/10/16 11:24:44;;;;;;;1.30;0.50;;;30.50;58.90;;;;;;5050853;28;20614;-75
2022/10/16 11:27:16;;;;;;;1.33;0.50;;;30.70;59.60;;;;;;5044844;28;20991;-76
2022/10/16 11:29:52;;;;;;;1.67;0.70;;;30.90;59.90;;;;;;5050464;28;20816;-75
2022/10/16 11:32:28;;;;;;;1.40;0.60;;;31.10;59.90;;;;;;5045929;28;20570;-76
2022/10/16 11:35:02;;;;;;;3.10;1.03;;;31.30;59.00;;;;;;5053566;28;20605;-76
2022/10/16 11:37:36;;;;;;;1.80;1.10;;;31.40;58.90;;;;;;5053253;28;20609;-76
2022/10/16 11:40:17;;;;;;;2.10;0.70;;;31.50;58.50;;;;;;5048286;28;20593;-76
2022/10/16 11:42:50;;;;;;;5.30;4.47;;;31.40;57.50;;;;;;5043287;28;20646;-76
2022/10/16 11:45:52;;;;;;;3.03;2.50;;;31.40;57.60;;;;;;5043188;28;20583;-76
2022/10/16 11:48:26;;;;;;;1.83;1.03;;;31.30;57.90;;;;;;5042056;28;20602;-74
2022/10/16 11:50:56;;;;;;;2.20;0.77;;;31.20;57.40;;;;;;5031873;28;20597;-74
2022/10/16 11:53:53;;;;;;;1.57;0.53;;;31.20;57.50;;;;;;5031417;28;20648;-75
2022/10/16 11:56:21;;;;;;;1.40;0.40;;;31.00;57.00;;;;;;5031092;28;20627;-74
2022/10/16 11:58:53;;;;;;;1.30;0.50;;;30.80;57.20;;;;;;5031033;28;20560;-74
2022/10/16 12:01:40;;;;;;;2.47;0.40;;;30.60;56.90;;;;;;5033525;28;20987;-74
2022/10/16 12:04:19;;;;;;;1.60;0.60;;;30.50;56.80;;;;;;5034592;28;20581;-73
2022/10/16 12:06:58;;;;;;;1.23;0.50;;;30.20;56.50;;;;;;5034615;28;20600;-73
2022/10/16 12:09:29;;;;;;;1.90;0.50;;;29.90;56.20;;;;;;5034924;28;20629;-73
2022/10/16 12:11:55;;;;;;;1.43;0.50;;;29.50;56.30;;;;;;5033382;28;20915;-74
2022/10/16 12:14:35;;;;;;;3.03;0.50;;;29.20;56.80;;;;;;5034563;28;20671;-75
2022/10/16 12:17:05;;;;;;;1.60;0.50;;;28.90;56.90;;;;;;5034595;28;20691;-75
2022/10/16 12:19:32;;;;;;;2.30;0.90;;;28.70;56.90;;;;;;5034537;28;20573;-75
2022/10/16 12:22:00;;;;;;;1.30;0.50;;;28.50;57.20;;;;;;5032691;28;20589;-75
2022/10/16 12:24:38;;;;;;;1.73;0.73;;;28.30;57.20;;;;;;5034810;28;20582;-74
2022/10/16 12:27:06;;;;;;;1.40;0.60;;;28.10;57.30;;;;;;5035525;28;20611;-74
2022/10/16 12:29:39;;;;;;;2.87;0.90;;;27.80;57.50;;;;;;5034383;28;20600;-74
2022/10/16 12:32:21;;;;;;;2.90;1.43;;;27.60;57.90;;;;;;5033840;28;20599;-74
2022/10/16 12:34:48;;;;;;;1.60;0.60;;;27.60;58.10;;;;;;5034186;28;20615;-73
2022/10/16 12:37:21;;;;;;;1.30;0.60;;;27.40;58.10;;;;;;5034210;28;20956;-74
2022/10/16 12:39:48;;;;;;;1.30;0.50;;;27.20;58.00;;;;;;5034121;28;20564;-75
2022/10/16 12:42:34;;;;;;;1.20;0.40;;;27.00;58.20;;;;;;5032691;28;21128;-73
2022/10/16 12:45:01;;;;;;;1.43;0.40;;;26.80;58.40;;;;;;5034180;28;20603;-73
2022/10/16 12:47:33;;;;;;;1.57;0.47;;;26.70;58.70;;;;;;5033987;28;20603;-72
2022/10/16 12:49:59;;;;;;;1.20;0.37;;;26.50;58.50;;;;;;5033963;28;20561;-73
2022/10/16 12:52:35;;;;;;;1.67;0.40;;;26.20;58.40;;;;;;5033696;28;20564;-72
2022/10/16 12:55:01;;;;;;;1.60;0.40;;;26.00;58.80;;;;;;5032847;28;20738;-75
2022/10/16 12:57:31;;;;;;;4.53;1.30;;;25.80;59.00;;;;;;5033785;28;20686;-72
2022/10/16 13:00:07;;;;;;;2.60;0.80;;;25.70;59.30;;;;;;5032980;28;20701;-74
2022/10/16 13:02:58;;;;;;;1.87;0.70;;;25.40;60.80;;;;;;5035710;28;20165;-74
2022/10/16 13:05:45;;;;;;;1.30;0.50;;;25.40;60.90;;;;;;5032451;28;20619;-74
2022/10/16 13:08:29;;;;;;;1.30;0.40;;;25.30;60.70;;;;;;5033402;28;20604;-74